Wyandot, Ohio
Current Conditions -  °F | °C
As of 12:28 PM on Tuesday 21 Oct 2014 (Local Time) from KMNN Reporting Station
Light Rain Light Rain  
Wind Chill: 43°   Ceiling: 1300
Heat Index: 48°   Visibility: 5mi
Dew Point: 45°   Wind: 13mph
Humidity: 89%   Direction: 340°NNW
Pressure: 30"   Gusts: NA
Location:  40.8054°N, 83.1316°W
Report Text: KMNN 211628Z AUTO 34011KT 5SM -RA BR SCT008 OVC013 09/07 A3000 RMK AO2 RAE16B22 P0001 T00890072 TSNO
Loading
Personal Weather Stations






























Interactive Weather Map
Tropical Storm Tracking
New forecast layout! Learn more

10-Day Weather Forecast

Advertisements
Track Severe Weather on mobile